Hovedside
METAR-TAF:

METAR-TAF

Lufthavner :

Kemi, Finland

Kemi-Torneå lufthavn

breddegrad: 65-47N, lengdegrad: 024-35E, høyde over havet: 15 m

Gjeldene værobservasjon

Denne rapporten ble laget for 10 minutter siden, klokken 10:20 UTC
Vind 9 kt fra Øst, skiftende mellom Øst-nordøst og Sør-sørøst
Temperatur 15°C
Luftfuktighet 63%
Trykk 993 hPa
Sikt 10 km eller mer
Brutte skyer i en høyde av 3900 ft

METAR: EFKE 251020Z AUTO 10009KT 060V160 9999 BKN039 15/08 Q0993

Tid: 13:30 (10:30 UTC)

Varsel

Denne rapporten ble laget for 1 time og 53 minutter siden, klokken 08:37 UTC
Varsel gyldig fra 25. klokken 09 UTC til 25. klokken 18 UTC
Vind 8 kt fra Øst
Sikt 10 km eller mer
Brutte skyer i en høyde av 3000 ft
Midlertidig
fra 25. klokken 09 UTC til 25. klokken 15 UTC
Sikt: 7000 m
regn
Midlertidig
fra 25. klokken 15 UTC til 25. klokken 18 UTC
Sikt: 5000 m
Brutte skyer i en høyde av 900 ft
dis

TAF: EFKE 250837Z 2509/2518 10008KT 9999 BKN030 TEMPO 2509/2515 7000 RA TEMPO 2515/2518 5000 BR BKN009

Værobservasjoner og værvarsel for over 4000 flyplasser (METAR- og TAF-rapporter).

Tilgjengelige stasjoner er representert av de røde og gule prikkene på kartet.

Hold musepekeren over prikken for å se navnet på stasjonen.

Klikk så for å se værobservasjoner og -varsler.

For å forandre kartet kan du klikke på den grønne knappen med svart kryss for å zoome inn, på den grønne knappen med strek for å zoome ut, eller på de grønne pilene for å se tilstøtende kart.


METAR-TAF: